sensor_id;sensor_type;location;lat;lon;timestamp;P1;durP1;ratioP1;P2;durP2;ratioP2
71763;SDS011;59602;52.142;5.408;2023-04-01T00:01:52;10.65;;;3.72;;
71763;SDS011;59602;52.142;5.408;2023-04-01T00:04:19;8.68;;;3.30;;
71763;SDS011;59602;52.142;5.408;2023-04-01T00:06:47;6.63;;;3.28;;
71763;SDS011;59602;52.142;5.408;2023-04-01T00:09:14;8.63;;;3.13;;
71763;SDS011;59602;52.142;5.408;2023-04-01T00:11:42;14.88;;;3.97;;
71763;SDS011;59602;52.142;5.408;2023-04-01T00:14:08;10.07;;;3.65;;
71763;SDS011;59602;52.142;5.408;2023-04-01T00:16:36;9.73;;;3.60;;
71763;SDS011;59602;52.142;5.408;2023-04-01T00:19:03;7.88;;;3.67;;
71763;SDS011;59602;52.142;5.408;2023-04-01T00:21:30;6.97;;;3.00;;
71763;SDS011;59602;52.142;5.408;2023-04-01T00:23:57;14.45;;;3.60;;
71763;SDS011;59602;52.142;5.408;2023-04-01T00:26:24;11.18;;;4.55;;
71763;SDS011;59602;52.142;5.408;2023-04-01T00:28:52;12.18;;;3.42;;
71763;SDS011;59602;52.142;5.408;2023-04-01T00:31:19;7.70;;;3.08;;
71763;SDS011;59602;52.142;5.408;2023-04-01T00:33:46;11.53;;;3.60;;
71763;SDS011;59602;52.142;5.408;2023-04-01T00:36:14;13.57;;;3.80;;
71763;SDS011;59602;52.142;5.408;2023-04-01T00:38:43;15.50;;;4.00;;
71763;SDS011;59602;52.142;5.408;2023-04-01T00:41:10;11.70;;;4.25;;
71763;SDS011;59602;52.142;5.408;2023-04-01T00:43:43;11.02;;;4.05;;
71763;SDS011;59602;52.142;5.408;2023-04-01T00:46:11;13.70;;;4.13;;
71763;SDS011;59602;52.142;5.408;2023-04-01T00:48:39;14.85;;;4.25;;
71763;SDS011;59602;52.142;5.408;2023-04-01T00:51:13;17.52;;;4.80;;
71763;SDS011;59602;52.142;5.408;2023-04-01T00:53:44;13.40;;;4.20;;
71763;SDS011;59602;52.142;5.408;2023-04-01T00:56:16;10.98;;;3.53;;
71763;SDS011;59602;52.142;5.408;2023-04-01T00:58:48;8.30;;;2.90;;
71763;SDS011;59602;52.142;5.408;2023-04-01T01:01:18;11.00;;;3.00;;
71763;SDS011;59602;52.142;5.408;2023-04-01T01:03:48;8.70;;;2.90;;
71763;SDS011;59602;52.142;5.408;2023-04-01T01:06:19;10.80;;;3.20;;
71763;SDS011;59602;52.142;5.408;2023-04-01T01:08:52;8.93;;;3.17;;
71763;SDS011;59602;52.142;5.408;2023-04-01T01:14:23;13.73;;;4.03;;
71763;SDS011;59602;52.142;5.408;2023-04-01T01:16:58;11.52;;;4.07;;
71763;SDS011;59602;52.142;5.408;2023-04-01T01:19:44;14.82;;;4.60;;
71763;SDS011;59602;52.142;5.408;2023-04-01T01:22:55;14.15;;;4.53;;
71763;SDS011;59602;52.142;5.408;2023-04-01T01:25:31;12.80;;;4.53;;
71763;SDS011;59602;52.142;5.408;2023-04-01T01:28:07;15.60;;;4.78;;
71763;SDS011;59602;52.142;5.408;2023-04-01T01:30:50;10.88;;;4.30;;
71763;SDS011;59602;52.142;5.408;2023-04-01T01:36:12;11.23;;;3.72;;
71763;SDS011;59602;52.142;5.408;2023-04-01T01:38:42;12.20;;;4.47;;
71763;SDS011;59602;52.142;5.408;2023-04-01T01:41:12;11.40;;;3.85;;
71763;SDS011;59602;52.142;5.408;2023-04-01T01:43:44;10.25;;;2.95;;
71763;SDS011;59602;52.142;5.408;2023-04-01T01:46:15;7.00;;;2.35;;
71763;SDS011;59602;52.142;5.408;2023-04-01T01:48:48;9.02;;;2.33;;
71763;SDS011;59602;52.142;5.408;2023-04-01T01:51:33;7.83;;;2.30;;
71763;SDS011;59602;52.142;5.408;2023-04-01T01:54:16;8.65;;;3.10;;
71763;SDS011;59602;52.142;5.408;2023-04-01T01:56:47;5.28;;;2.17;;
71763;SDS011;59602;52.142;5.408;2023-04-01T01:59:19;6.40;;;1.92;;
71763;SDS011;59602;52.142;5.408;2023-04-01T02:01:50;6.25;;;1.48;;
71763;SDS011;59602;52.142;5.408;2023-04-01T02:04:24;3.00;;;1.37;;
71763;SDS011;59602;52.142;5.408;2023-04-01T02:06:58;3.30;;;1.08;;
71763;SDS011;59602;52.142;5.408;2023-04-01T02:09:33;3.03;;;0.90;;
71763;SDS011;59602;52.142;5.408;2023-04-01T02:12:02;3.15;;;0.90;;
71763;SDS011;59602;52.142;5.408;2023-04-01T02:14:37;4.97;;;1.23;;
71763;SDS011;59602;52.142;5.408;2023-04-01T02:17:11;4.17;;;1.20;;
71763;SDS011;59602;52.142;5.408;2023-04-01T02:19:45;3.38;;;0.90;;
71763;SDS011;59602;52.142;5.408;2023-04-01T02:22:19;3.70;;;1.50;;
71763;SDS011;59602;52.142;5.408;2023-04-01T02:24:53;2.95;;;1.05;;
71763;SDS011;59602;52.142;5.408;2023-04-01T02:27:26;3.55;;;1.08;;
71763;SDS011;59602;52.142;5.408;2023-04-01T02:29:56;3.40;;;0.97;;
71763;SDS011;59602;52.142;5.408;2023-04-01T02:32:24;5.03;;;1.30;;
71763;SDS011;59602;52.142;5.408;2023-04-01T02:34:51;2.67;;;0.90;;
71763;SDS011;59602;52.142;5.408;2023-04-01T02:37:18;4.43;;;0.90;;
71763;SDS011;59602;52.142;5.408;2023-04-01T02:39:45;4.97;;;0.80;;
71763;SDS011;59602;52.142;5.408;2023-04-01T02:42:13;3.23;;;1.07;;
71763;SDS011;59602;52.142;5.408;2023-04-01T02:44:56;5.22;;;1.05;;
71763;SDS011;59602;52.142;5.408;2023-04-01T02:47:26;5.28;;;1.42;;
71763;SDS011;59602;52.142;5.408;2023-04-01T02:49:55;4.40;;;1.13;;
71763;SDS011;59602;52.142;5.408;2023-04-01T02:52:25;3.90;;;0.90;;
71763;SDS011;59602;52.142;5.408;2023-04-01T02:55:10;4.00;;;0.90;;
71763;SDS011;59602;52.142;5.408;2023-04-01T02:57:37;3.25;;;1.17;;
71763;SDS011;59602;52.142;5.408;2023-04-01T03:00:07;3.80;;;0.93;;
71763;SDS011;59602;52.142;5.408;2023-04-01T03:02:38;4.50;;;1.00;;
71763;SDS011;59602;52.142;5.408;2023-04-01T03:05:07;3.22;;;0.90;;
71763;SDS011;59602;52.142;5.408;2023-04-01T03:07:43;2.77;;;0.93;;
71763;SDS011;59602;52.142;5.408;2023-04-01T03:10:25;3.28;;;0.70;;
71763;SDS011;59602;52.142;5.408;2023-04-01T03:13:08;2.97;;;0.70;;
71763;SDS011;59602;52.142;5.408;2023-04-01T03:15:55;3.72;;;0.88;;
71763;SDS011;59602;52.142;5.408;2023-04-01T03:18:27;3.35;;;0.70;;
71763;SDS011;59602;52.142;5.408;2023-04-01T03:21:12;2.87;;;0.63;;
71763;SDS011;59602;52.142;5.408;2023-04-01T03:23:49;3.88;;;0.65;;
71763;SDS011;59602;52.142;5.408;2023-04-01T03:26:22;2.67;;;0.63;;
71763;SDS011;59602;52.142;5.408;2023-04-01T03:28:53;2.78;;;1.02;;
71763;SDS011;59602;52.142;5.408;2023-04-01T03:31:28;3.47;;;0.93;;
71763;SDS011;59602;52.142;5.408;2023-04-01T03:33:57;2.83;;;1.00;;
71763;SDS011;59602;52.142;5.408;2023-04-01T03:36:34;3.90;;;1.15;;
71763;SDS011;59602;52.142;5.408;2023-04-01T03:39:04;4.88;;;1.50;;
71763;SDS011;59602;52.142;5.408;2023-04-01T03:41:57;4.22;;;1.45;;
71763;SDS011;59602;52.142;5.408;2023-04-01T03:44:31;3.97;;;1.45;;
71763;SDS011;59602;52.142;5.408;2023-04-01T03:47:12;5.50;;;1.90;;
71763;SDS011;59602;52.142;5.408;2023-04-01T03:49:43;4.90;;;2.35;;
71763;SDS011;59602;52.142;5.408;2023-04-01T03:52:13;5.68;;;2.65;;
71763;SDS011;59602;52.142;5.408;2023-04-01T03:54:49;9.63;;;3.05;;
71763;SDS011;59602;52.142;5.408;2023-04-01T03:57:35;8.93;;;3.60;;
71763;SDS011;59602;52.142;5.408;2023-04-01T04:00:03;8.40;;;3.33;;
71763;SDS011;59602;52.142;5.408;2023-04-01T04:02:50;8.30;;;3.30;;
71763;SDS011;59602;52.142;5.408;2023-04-01T04:05:32;10.38;;;4.15;;
71763;SDS011;59602;52.142;5.408;2023-04-01T04:08:01;13.70;;;4.53;;
71763;SDS011;59602;52.142;5.408;2023-04-01T04:10:29;8.98;;;3.30;;
71763;SDS011;59602;52.142;5.408;2023-04-01T04:12:59;9.20;;;3.77;;
71763;SDS011;59602;52.142;5.408;2023-04-01T04:15:27;12.07;;;4.00;;
71763;SDS011;59602;52.142;5.408;2023-04-01T04:17:56;8.82;;;3.58;;
71763;SDS011;59602;52.142;5.408;2023-04-01T04:20:25;9.10;;;3.45;;
71763;SDS011;59602;52.142;5.408;2023-04-01T04:22:56;7.18;;;3.50;;
71763;SDS011;59602;52.142;5.408;2023-04-01T04:25:24;7.80;;;3.30;;
71763;SDS011;59602;52.142;5.408;2023-04-01T04:27:51;7.28;;;2.80;;
71763;SDS011;59602;52.142;5.408;2023-04-01T04:30:20;5.70;;;2.58;;
71763;SDS011;59602;52.142;5.408;2023-04-01T04:33:02;8.45;;;2.60;;
71763;SDS011;59602;52.142;5.408;2023-04-01T04:35:33;7.43;;;2.40;;
71763;SDS011;59602;52.142;5.408;2023-04-01T04:38:01;4.77;;;2.67;;
71763;SDS011;59602;52.142;5.408;2023-04-01T04:40:46;5.32;;;2.40;;
71763;SDS011;59602;52.142;5.408;2023-04-01T04:43:29;6.05;;;2.55;;
71763;SDS011;59602;52.142;5.408;2023-04-01T04:46:03;6.30;;;2.70;;
71763;SDS011;59602;52.142;5.408;2023-04-01T04:48:45;6.13;;;2.15;;
71763;SDS011;59602;52.142;5.408;2023-04-01T04:51:13;6.43;;;2.30;;
71763;SDS011;59602;52.142;5.408;2023-04-01T04:53:43;7.15;;;2.60;;
71763;SDS011;59602;52.142;5.408;2023-04-01T04:56:11;6.78;;;1.90;;
71763;SDS011;59602;52.142;5.408;2023-04-01T04:58:40;6.53;;;2.40;;
71763;SDS011;59602;52.142;5.408;2023-04-01T05:01:10;5.07;;;1.65;;
71763;SDS011;59602;52.142;5.408;2023-04-01T05:03:42;3.47;;;1.10;;
71763;SDS011;59602;52.142;5.408;2023-04-01T05:06:14;4.97;;;1.63;;
71763;SDS011;59602;52.142;5.408;2023-04-01T05:08:51;4.53;;;1.33;;
71763;SDS011;59602;52.142;5.408;2023-04-01T05:11:23;4.65;;;1.33;;
71763;SDS011;59602;52.142;5.408;2023-04-01T05:13:55;4.90;;;1.73;;
71763;SDS011;59602;52.142;5.408;2023-04-01T05:16:25;4.77;;;1.80;;
71763;SDS011;59602;52.142;5.408;2023-04-01T05:18:54;6.47;;;2.15;;
71763;SDS011;59602;52.142;5.408;2023-04-01T05:21:21;6.03;;;2.10;;
71763;SDS011;59602;52.142;5.408;2023-04-01T05:23:47;6.07;;;2.00;;
71763;SDS011;59602;52.142;5.408;2023-04-01T05:26:14;7.03;;;2.33;;
71763;SDS011;59602;52.142;5.408;2023-04-01T05:28:59;6.27;;;2.20;;
71763;SDS011;59602;52.142;5.408;2023-04-01T05:31:33;5.35;;;2.00;;
71763;SDS011;59602;52.142;5.408;2023-04-01T05:34:01;5.88;;;2.30;;
71763;SDS011;59602;52.142;5.408;2023-04-01T05:36:29;6.07;;;2.15;;
71763;SDS011;59602;52.142;5.408;2023-04-01T05:39:02;5.32;;;2.17;;
71763;SDS011;59602;52.142;5.408;2023-04-01T05:41:45;5.27;;;2.23;;
71763;SDS011;59602;52.142;5.408;2023-04-01T05:44:13;6.03;;;1.80;;
71763;SDS011;59602;52.142;5.408;2023-04-01T05:46:58;3.88;;;1.50;;
71763;SDS011;59602;52.142;5.408;2023-04-01T05:49:43;4.38;;;1.15;;
71763;SDS011;59602;52.142;5.408;2023-04-01T05:52:28;4.45;;;1.23;;
71763;SDS011;59602;52.142;5.408;2023-04-01T05:55:04;3.70;;;1.00;;
71763;SDS011;59602;52.142;5.408;2023-04-01T05:57:40;3.60;;;0.93;;
71763;SDS011;59602;52.142;5.408;2023-04-01T06:00:23;4.13;;;1.23;;
71763;SDS011;59602;52.142;5.408;2023-04-01T06:02:54;3.65;;;0.90;;
71763;SDS011;59602;52.142;5.408;2023-04-01T06:05:57;3.10;;;0.98;;
71763;SDS011;59602;52.142;5.408;2023-04-01T06:08:56;3.53;;;1.13;;
71763;SDS011;59602;52.142;5.408;2023-04-01T06:11:55;3.20;;;0.90;;
71763;SDS011;59602;52.142;5.408;2023-04-01T06:18:23;2.95;;;0.90;;
71763;SDS011;59602;52.142;5.408;2023-04-01T06:24:30;3.80;;;1.10;;
71763;SDS011;59602;52.142;5.408;2023-04-01T06:27:40;3.88;;;1.25;;
71763;SDS011;59602;52.142;5.408;2023-04-01T06:42:29;3.22;;;1.15;;
71763;SDS011;59602;52.142;5.408;2023-04-01T06:48:47;4.10;;;1.15;;
71763;SDS011;59602;52.142;5.408;2023-04-01T06:52:07;3.10;;;0.75;;
71763;SDS011;59602;52.142;5.408;2023-04-01T06:55:27;2.50;;;0.40;;
71763;SDS011;59602;52.142;5.408;2023-04-01T06:58:19;3.80;;;0.60;;
71763;SDS011;59602;52.142;5.408;2023-04-01T07:01:15;2.15;;;0.60;;
71763;SDS011;59602;52.142;5.408;2023-04-01T07:04:06;2.13;;;0.50;;
71763;SDS011;59602;52.142;5.408;2023-04-01T07:07:21;2.75;;;0.73;;
71763;SDS011;59602;52.142;5.408;2023-04-01T07:21:03;3.17;;;1.00;;
71763;SDS011;59602;52.142;5.408;2023-04-01T07:23:33;4.00;;;1.10;;
71763;SDS011;59602;52.142;5.408;2023-04-01T07:26:18;3.42;;;1.20;;
71763;SDS011;59602;52.142;5.408;2023-04-01T07:29:00;5.00;;;1.70;;
71763;SDS011;59602;52.142;5.408;2023-04-01T07:35:28;4.60;;;1.20;;
71763;SDS011;59602;52.142;5.408;2023-04-01T07:51:49;3.30;;;1.38;;
71763;SDS011;59602;52.142;5.408;2023-04-01T07:58:29;4.63;;;1.60;;
71763;SDS011;59602;52.142;5.408;2023-04-01T08:01:27;6.47;;;1.95;;
71763;SDS011;59602;52.142;5.408;2023-04-01T08:08:10;6.05;;;1.83;;
71763;SDS011;59602;52.142;5.408;2023-04-01T08:11:34;5.17;;;2.10;;
71763;SDS011;59602;52.142;5.408;2023-04-01T08:20:59;7.70;;;2.33;;
71763;SDS011;59602;52.142;5.408;2023-04-01T08:27:16;6.57;;;1.97;;
71763;SDS011;59602;52.142;5.408;2023-04-01T08:33:19;6.53;;;2.60;;
71763;SDS011;59602;52.142;5.408;2023-04-01T08:36:27;6.60;;;2.28;;
71763;SDS011;59602;52.142;5.408;2023-04-01T08:39:36;6.03;;;2.40;;
71763;SDS011;59602;52.142;5.408;2023-04-01T08:45:44;6.63;;;2.25;;
71763;SDS011;59602;52.142;5.408;2023-04-01T08:48:44;6.45;;;2.20;;
71763;SDS011;59602;52.142;5.408;2023-04-01T08:51:53;6.45;;;2.60;;
71763;SDS011;59602;52.142;5.408;2023-04-01T08:57:57;6.57;;;2.50;;
71763;SDS011;59602;52.142;5.408;2023-04-01T09:00:38;5.70;;;2.10;;
71763;SDS011;59602;52.142;5.408;2023-04-01T09:06:13;7.47;;;2.33;;
71763;SDS011;59602;52.142;5.408;2023-04-01T09:11:30;5.23;;;1.93;;
71763;SDS011;59602;52.142;5.408;2023-04-01T09:17:11;6.00;;;2.10;;
71763;SDS011;59602;52.142;5.408;2023-04-01T09:25:12;4.50;;;1.63;;
71763;SDS011;59602;52.142;5.408;2023-04-01T09:38:28;4.60;;;1.80;;
71763;SDS011;59602;52.142;5.408;2023-04-01T09:41:02;4.18;;;1.63;;
71763;SDS011;59602;52.142;5.408;2023-04-01T09:44:00;5.13;;;2.20;;
71763;SDS011;59602;52.142;5.408;2023-04-01T09:49:36;4.82;;;1.85;;
71763;SDS011;59602;52.142;5.408;2023-04-01T09:52:26;6.03;;;2.30;;
71763;SDS011;59602;52.142;5.408;2023-04-01T10:11:01;6.45;;;2.97;;
71763;SDS011;59602;52.142;5.408;2023-04-01T10:19:18;8.00;;;3.00;;
71763;SDS011;59602;52.142;5.408;2023-04-01T10:25:02;6.20;;;2.63;;
71763;SDS011;59602;52.142;5.408;2023-04-01T10:27:49;7.03;;;2.75;;
71763;SDS011;59602;52.142;5.408;2023-04-01T10:38:59;7.05;;;2.60;;
71763;SDS011;59602;52.142;5.408;2023-04-01T10:41:46;5.60;;;2.65;;
71763;SDS011;59602;52.142;5.408;2023-04-01T10:44:30;6.05;;;2.40;;
71763;SDS011;59602;52.142;5.408;2023-04-01T10:47:18;5.50;;;1.97;;
71763;SDS011;59602;52.142;5.408;2023-04-01T10:59:11;4.20;;;1.23;;
71763;SDS011;59602;52.142;5.408;2023-04-01T11:18:35;1.83;;;0.53;;
71763;SDS011;59602;52.142;5.408;2023-04-01T11:28:34;2.53;;;0.90;;
71763;SDS011;59602;52.142;5.408;2023-04-01T11:37:38;1.48;;;0.50;;
71763;SDS011;59602;52.142;5.408;2023-04-01T11:43:24;1.05;;;0.30;;
71763;SDS011;59602;52.142;5.408;2023-04-01T11:52:30;7.35;;;6.70;;
71763;SDS011;59602;52.142;5.408;2023-04-01T11:55:22;3.38;;;2.85;;
71763;SDS011;59602;52.142;5.408;2023-04-01T12:06:11;2.42;;;0.77;;
71763;SDS011;59602;52.142;5.408;2023-04-01T12:08:50;2.58;;;0.70;;
71763;SDS011;59602;52.142;5.408;2023-04-01T12:11:29;2.83;;;0.93;;
71763;SDS011;59602;52.142;5.408;2023-04-01T12:14:09;4.15;;;1.70;;
71763;SDS011;59602;52.142;5.408;2023-04-01T12:16:55;4.40;;;2.13;;
71763;SDS011;59602;52.142;5.408;2023-04-01T12:19:35;4.78;;;1.80;;
71763;SDS011;59602;52.142;5.408;2023-04-01T12:22:17;5.53;;;1.75;;
71763;SDS011;59602;52.142;5.408;2023-04-01T12:27:44;5.70;;;1.92;;
71763;SDS011;59602;52.142;5.408;2023-04-01T12:30:35;6.23;;;2.80;;
71763;SDS011;59602;52.142;5.408;2023-04-01T12:35:55;7.93;;;3.38;;
71763;SDS011;59602;52.142;5.408;2023-04-01T12:47:08;8.75;;;3.80;;
71763;SDS011;59602;52.142;5.408;2023-04-01T13:11:52;10.33;;;3.70;;
71763;SDS011;59602;52.142;5.408;2023-04-01T13:15:04;6.57;;;2.95;;
71763;SDS011;59602;52.142;5.408;2023-04-01T13:17:50;7.60;;;3.33;;
71763;SDS011;59602;52.142;5.408;2023-04-01T13:20:35;5.07;;;2.13;;
71763;SDS011;59602;52.142;5.408;2023-04-01T13:28:50;5.18;;;2.17;;
71763;SDS011;59602;52.142;5.408;2023-04-01T13:31:29;5.68;;;2.13;;
71763;SDS011;59602;52.142;5.408;2023-04-01T13:34:13;4.40;;;2.20;;
71763;SDS011;59602;52.142;5.408;2023-04-01T13:39:35;4.87;;;1.67;;
71763;SDS011;59602;52.142;5.408;2023-04-01T13:42:23;4.80;;;1.60;;
71763;SDS011;59602;52.142;5.408;2023-04-01T13:44:54;3.35;;;1.30;;
71763;SDS011;59602;52.142;5.408;2023-04-01T13:47:55;3.50;;;1.20;;
71763;SDS011;59602;52.142;5.408;2023-04-01T13:50:55;3.47;;;1.50;;
71763;SDS011;59602;52.142;5.408;2023-04-01T13:56:08;2.92;;;1.20;;
71763;SDS011;59602;52.142;5.408;2023-04-01T13:58:43;4.03;;;1.23;;
71763;SDS011;59602;52.142;5.408;2023-04-01T14:01:31;3.95;;;1.42;;
71763;SDS011;59602;52.142;5.408;2023-04-01T14:09:24;10.43;;;6.95;;
71763;SDS011;59602;52.142;5.408;2023-04-01T14:12:38;11.20;;;10.15;;
71763;SDS011;59602;52.142;5.408;2023-04-01T14:18:13;6.70;;;4.22;;
71763;SDS011;59602;52.142;5.408;2023-04-01T14:23:31;6.03;;;2.85;;
71763;SDS011;59602;52.142;5.408;2023-04-01T14:26:15;4.68;;;1.92;;
71763;SDS011;59602;52.142;5.408;2023-04-01T14:31:48;5.78;;;2.60;;
71763;SDS011;59602;52.142;5.408;2023-04-01T14:45:02;3.63;;;1.50;;
71763;SDS011;59602;52.142;5.408;2023-04-01T14:50:28;4.53;;;2.55;;
71763;SDS011;59602;52.142;5.408;2023-04-01T14:53:28;4.03;;;1.60;;
71763;SDS011;59602;52.142;5.408;2023-04-01T14:55:58;4.30;;;2.47;;
71763;SDS011;59602;52.142;5.408;2023-04-01T14:58:40;5.88;;;3.10;;
71763;SDS011;59602;52.142;5.408;2023-04-01T15:01:59;4.50;;;1.83;;
71763;SDS011;59602;52.142;5.408;2023-04-01T15:04:41;4.13;;;1.67;;
71763;SDS011;59602;52.142;5.408;2023-04-01T15:10:06;3.30;;;1.38;;
71763;SDS011;59602;52.142;5.408;2023-04-01T15:12:55;3.72;;;1.45;;
71763;SDS011;59602;52.142;5.408;2023-04-01T15:15:39;4.37;;;2.47;;
71763;SDS011;59602;52.142;5.408;2023-04-01T15:23:48;3.05;;;1.17;;
71763;SDS011;59602;52.142;5.408;2023-04-01T15:26:30;3.42;;;1.20;;
71763;SDS011;59602;52.142;5.408;2023-04-01T15:32:00;4.80;;;1.30;;
71763;SDS011;59602;52.142;5.408;2023-04-01T15:34:41;4.60;;;3.03;;
71763;SDS011;59602;52.142;5.408;2023-04-01T15:43:14;4.23;;;1.77;;
71763;SDS011;59602;52.142;5.408;2023-04-01T15:45:51;3.17;;;1.80;;
71763;SDS011;59602;52.142;5.408;2023-04-01T15:48:27;2.67;;;1.10;;
71763;SDS011;59602;52.142;5.408;2023-04-01T15:51:10;2.55;;;1.08;;
71763;SDS011;59602;52.142;5.408;2023-04-01T15:56:41;2.90;;;0.80;;
71763;SDS011;59602;52.142;5.408;2023-04-01T15:59:20;2.65;;;1.10;;
71763;SDS011;59602;52.142;5.408;2023-04-01T16:02:01;2.33;;;0.70;;
71763;SDS011;59602;52.142;5.408;2023-04-01T16:07:30;3.13;;;1.80;;
71763;SDS011;59602;52.142;5.408;2023-04-01T16:10:27;2.87;;;1.63;;
71763;SDS011;59602;52.142;5.408;2023-04-01T16:13:14;2.50;;;1.10;;
71763;SDS011;59602;52.142;5.408;2023-04-01T16:15:51;2.42;;;1.05;;
71763;SDS011;59602;52.142;5.408;2023-04-01T16:21:08;3.50;;;1.05;;
71763;SDS011;59602;52.142;5.408;2023-04-01T16:23:48;2.30;;;1.00;;
71763;SDS011;59602;52.142;5.408;2023-04-01T16:26:34;2.70;;;0.80;;
71763;SDS011;59602;52.142;5.408;2023-04-01T16:29:21;2.67;;;0.93;;
71763;SDS011;59602;52.142;5.408;2023-04-01T16:37:32;4.70;;;1.40;;
71763;SDS011;59602;52.142;5.408;2023-04-01T16:40:10;2.80;;;1.40;;
71763;SDS011;59602;52.142;5.408;2023-04-01T16:45:19;4.00;;;1.70;;
71763;SDS011;59602;52.142;5.408;2023-04-01T16:48:09;3.92;;;2.22;;
71763;SDS011;59602;52.142;5.408;2023-04-01T16:53:17;3.20;;;1.83;;
71763;SDS011;59602;52.142;5.408;2023-04-01T16:55:54;3.58;;;1.80;;
71763;SDS011;59602;52.142;5.408;2023-04-01T16:58:36;3.22;;;1.77;;
71763;SDS011;59602;52.142;5.408;2023-04-01T17:03:49;3.17;;;1.20;;
71763;SDS011;59602;52.142;5.408;2023-04-01T17:06:22;2.95;;;1.23;;
71763;SDS011;59602;52.142;5.408;2023-04-01T17:09:01;5.15;;;2.05;;
71763;SDS011;59602;52.142;5.408;2023-04-01T17:14:33;2.10;;;1.00;;
71763;SDS011;59602;52.142;5.408;2023-04-01T17:19:56;2.20;;;1.10;;
71763;SDS011;59602;52.142;5.408;2023-04-01T17:22:41;2.58;;;0.95;;
71763;SDS011;59602;52.142;5.408;2023-04-01T17:25:19;2.95;;;1.58;;
71763;SDS011;59602;52.142;5.408;2023-04-01T17:28:19;17.58;;;10.77;;
71763;SDS011;59602;52.142;5.408;2023-04-01T17:31:00;11.60;;;6.10;;
71763;SDS011;59602;52.142;5.408;2023-04-01T17:33:43;3.83;;;2.00;;
71763;SDS011;59602;52.142;5.408;2023-04-01T17:36:36;3.42;;;2.58;;
71763;SDS011;59602;52.142;5.408;2023-04-01T17:39:18;2.90;;;1.23;;
71763;SDS011;59602;52.142;5.408;2023-04-01T17:42:09;2.35;;;1.33;;
71763;SDS011;59602;52.142;5.408;2023-04-01T17:44:57;2.23;;;1.23;;
71763;SDS011;59602;52.142;5.408;2023-04-01T17:47:29;2.38;;;1.40;;
71763;SDS011;59602;52.142;5.408;2023-04-01T17:53:14;3.17;;;1.33;;
71763;SDS011;59602;52.142;5.408;2023-04-01T17:55:49;2.60;;;1.50;;
71763;SDS011;59602;52.142;5.408;2023-04-01T17:58:29;2.83;;;1.43;;
71763;SDS011;59602;52.142;5.408;2023-04-01T18:04:04;2.80;;;1.80;;
71763;SDS011;59602;52.142;5.408;2023-04-01T18:06:59;2.53;;;1.23;;
71763;SDS011;59602;52.142;5.408;2023-04-01T18:12:56;3.20;;;1.30;;
71763;SDS011;59602;52.142;5.408;2023-04-01T18:20:42;2.97;;;1.27;;
71763;SDS011;59602;52.142;5.408;2023-04-01T18:23:21;2.45;;;1.27;;
71763;SDS011;59602;52.142;5.408;2023-04-01T18:25:50;2.50;;;1.60;;
71763;SDS011;59602;52.142;5.408;2023-04-01T18:28:26;2.50;;;1.52;;
71763;SDS011;59602;52.142;5.408;2023-04-01T18:36:15;3.05;;;1.65;;
71763;SDS011;59602;52.142;5.408;2023-04-01T18:38:49;3.53;;;2.50;;
71763;SDS011;59602;52.142;5.408;2023-04-01T18:46:39;3.88;;;2.40;;
71763;SDS011;59602;52.142;5.408;2023-04-01T18:49:19;2.75;;;1.63;;
71763;SDS011;59602;52.142;5.408;2023-04-01T18:51:57;2.97;;;1.70;;
71763;SDS011;59602;52.142;5.408;2023-04-01T18:54:31;3.28;;;1.67;;
71763;SDS011;59602;52.142;5.408;2023-04-01T18:57:00;3.72;;;2.17;;
71763;SDS011;59602;52.142;5.408;2023-04-01T19:02:14;20.33;;;12.18;;
71763;SDS011;59602;52.142;5.408;2023-04-01T19:10:14;4.72;;;2.20;;
71763;SDS011;59602;52.142;5.408;2023-04-01T19:23:47;4.43;;;2.60;;
71763;SDS011;59602;52.142;5.408;2023-04-01T19:26:34;4.15;;;2.88;;
71763;SDS011;59602;52.142;5.408;2023-04-01T19:34:54;2.88;;;2.50;;
71763;SDS011;59602;52.142;5.408;2023-04-01T19:40:04;3.17;;;1.92;;
71763;SDS011;59602;52.142;5.408;2023-04-01T19:42:59;3.40;;;2.22;;
71763;SDS011;59602;52.142;5.408;2023-04-01T19:48:17;4.00;;;1.92;;
71763;SDS011;59602;52.142;5.408;2023-04-01T19:51:10;4.68;;;2.10;;
71763;SDS011;59602;52.142;5.408;2023-04-01T19:53:50;3.88;;;2.15;;
71763;SDS011;59602;52.142;5.408;2023-04-01T19:56:27;3.92;;;2.35;;
71763;SDS011;59602;52.142;5.408;2023-04-01T19:59:05;4.43;;;2.50;;
71763;SDS011;59602;52.142;5.408;2023-04-01T20:01:40;6.15;;;2.58;;
71763;SDS011;59602;52.142;5.408;2023-04-01T20:04:17;4.60;;;2.47;;
71763;SDS011;59602;52.142;5.408;2023-04-01T20:09:46;4.85;;;2.60;;
71763;SDS011;59602;52.142;5.408;2023-04-01T20:12:23;4.97;;;2.60;;
71763;SDS011;59602;52.142;5.408;2023-04-01T20:15:20;4.40;;;2.92;;
71763;SDS011;59602;52.142;5.408;2023-04-01T20:18:00;6.00;;;3.35;;
71763;SDS011;59602;52.142;5.408;2023-04-01T20:20:31;6.25;;;3.15;;
71763;SDS011;59602;52.142;5.408;2023-04-01T20:25:38;4.73;;;3.20;;
71763;SDS011;59602;52.142;5.408;2023-04-01T20:28:14;5.15;;;2.92;;
71763;SDS011;59602;52.142;5.408;2023-04-01T20:31:03;5.72;;;3.58;;
71763;SDS011;59602;52.142;5.408;2023-04-01T20:36:34;7.43;;;3.20;;
71763;SDS011;59602;52.142;5.408;2023-04-01T20:44:26;5.22;;;3.15;;
71763;SDS011;59602;52.142;5.408;2023-04-01T20:47:15;6.05;;;3.33;;
71763;SDS011;59602;52.142;5.408;2023-04-01T20:52:39;4.90;;;3.10;;
71763;SDS011;59602;52.142;5.408;2023-04-01T20:57:42;4.60;;;2.92;;
71763;SDS011;59602;52.142;5.408;2023-04-01T21:00:26;5.85;;;2.65;;
71763;SDS011;59602;52.142;5.408;2023-04-01T21:03:18;5.20;;;3.17;;
71763;SDS011;59602;52.142;5.408;2023-04-01T21:06:17;4.53;;;2.70;;
71763;SDS011;59602;52.142;5.408;2023-04-01T21:11:41;5.15;;;2.95;;
71763;SDS011;59602;52.142;5.408;2023-04-01T21:17:29;4.50;;;2.55;;
71763;SDS011;59602;52.142;5.408;2023-04-01T21:22:51;5.47;;;2.78;;
71763;SDS011;59602;52.142;5.408;2023-04-01T21:42:23;5.35;;;2.90;;
71763;SDS011;59602;52.142;5.408;2023-04-01T21:47:42;5.33;;;2.33;;
71763;SDS011;59602;52.142;5.408;2023-04-01T21:50:41;5.75;;;3.15;;
71763;SDS011;59602;52.142;5.408;2023-04-01T21:55:50;4.75;;;2.85;;
71763;SDS011;59602;52.142;5.408;2023-04-01T22:00:54;6.63;;;3.03;;
71763;SDS011;59602;52.142;5.408;2023-04-01T22:03:59;5.50;;;2.92;;
71763;SDS011;59602;52.142;5.408;2023-04-01T22:09:18;5.68;;;2.90;;
71763;SDS011;59602;52.142;5.408;2023-04-01T22:11:53;5.65;;;3.28;;
71763;SDS011;59602;52.142;5.408;2023-04-01T22:17:08;3.97;;;2.50;;
71763;SDS011;59602;52.142;5.408;2023-04-01T22:25:24;7.15;;;3.25;;
71763;SDS011;59602;52.142;5.408;2023-04-01T22:28:22;5.80;;;2.87;;
71763;SDS011;59602;52.142;5.408;2023-04-01T22:30:56;4.30;;;2.17;;
71763;SDS011;59602;52.142;5.408;2023-04-01T22:33:47;6.05;;;2.58;;
71763;SDS011;59602;52.142;5.408;2023-04-01T22:36:28;6.95;;;3.08;;
71763;SDS011;59602;52.142;5.408;2023-04-01T22:41:51;6.67;;;2.80;;
71763;SDS011;59602;52.142;5.408;2023-04-01T22:47:40;6.07;;;3.47;;
71763;SDS011;59602;52.142;5.408;2023-04-01T22:50:33;7.72;;;3.50;;
71763;SDS011;59602;52.142;5.408;2023-04-01T22:55:59;7.87;;;3.70;;
71763;SDS011;59602;52.142;5.408;2023-04-01T22:58:33;8.38;;;3.45;;
71763;SDS011;59602;52.142;5.408;2023-04-01T23:01:06;11.15;;;3.78;;
71763;SDS011;59602;52.142;5.408;2023-04-01T23:03:40;7.45;;;3.70;;
71763;SDS011;59602;52.142;5.408;2023-04-01T23:06:12;7.53;;;3.67;;
71763;SDS011;59602;52.142;5.408;2023-04-01T23:08:49;7.07;;;3.70;;
71763;SDS011;59602;52.142;5.408;2023-04-01T23:14:05;7.35;;;3.60;;
71763;SDS011;59602;52.142;5.408;2023-04-01T23:16:45;7.85;;;4.22;;
71763;SDS011;59602;52.142;5.408;2023-04-01T23:19:33;8.85;;;4.28;;
71763;SDS011;59602;52.142;5.408;2023-04-01T23:27:40;9.35;;;4.03;;
71763;SDS011;59602;52.142;5.408;2023-04-01T23:33:10;9.45;;;3.88;;
71763;SDS011;59602;52.142;5.408;2023-04-01T23:38:19;9.00;;;3.97;;
71763;SDS011;59602;52.142;5.408;2023-04-01T23:40:49;10.70;;;4.03;;